sensor_id;sensor_type;location;lat;lon;timestamp;P1;durP1;ratioP1;P2;durP2;ratioP2
4529;SDS011;2277;51.626;7.516;2023-08-24T00:00:19;4.37;;;3.67;;
4529;SDS011;2277;51.626;7.516;2023-08-24T00:02:45;13.53;;;3.10;;
4529;SDS011;2277;51.626;7.516;2023-08-24T00:05:11;3.60;;;2.13;;
4529;SDS011;2277;51.626;7.516;2023-08-24T00:07:38;3.03;;;2.50;;
4529;SDS011;2277;51.626;7.516;2023-08-24T00:10:04;3.23;;;2.93;;
4529;SDS011;2277;51.626;7.516;2023-08-24T00:12:29;3.73;;;2.80;;
4529;SDS011;2277;51.626;7.516;2023-08-24T00:14:58;7.50;;;3.23;;
4529;SDS011;2277;51.626;7.516;2023-08-24T00:17:24;3.30;;;2.63;;
4529;SDS011;2277;51.626;7.516;2023-08-24T00:19:49;4.50;;;2.80;;
4529;SDS011;2277;51.626;7.516;2023-08-24T00:22:15;3.77;;;2.83;;
4529;SDS011;2277;51.626;7.516;2023-08-24T00:24:40;3.90;;;3.27;;
4529;SDS011;2277;51.626;7.516;2023-08-24T00:27:06;4.90;;;3.17;;
4529;SDS011;2277;51.626;7.516;2023-08-24T00:29:32;4.40;;;3.03;;
4529;SDS011;2277;51.626;7.516;2023-08-24T00:31:57;4.00;;;3.17;;
4529;SDS011;2277;51.626;7.516;2023-08-24T00:34:23;3.60;;;3.00;;
4529;SDS011;2277;51.626;7.516;2023-08-24T00:36:48;5.57;;;2.83;;
4529;SDS011;2277;51.626;7.516;2023-08-24T00:39:14;3.93;;;3.13;;
4529;SDS011;2277;51.626;7.516;2023-08-24T00:41:41;3.93;;;3.03;;
4529;SDS011;2277;51.626;7.516;2023-08-24T00:44:07;3.60;;;2.60;;
4529;SDS011;2277;51.626;7.516;2023-08-24T00:46:32;3.43;;;3.13;;
4529;SDS011;2277;51.626;7.516;2023-08-24T00:48:59;4.17;;;2.90;;
4529;SDS011;2277;51.626;7.516;2023-08-24T00:51:25;2.93;;;2.73;;
4529;SDS011;2277;51.626;7.516;2023-08-24T00:53:51;3.80;;;2.90;;
4529;SDS011;2277;51.626;7.516;2023-08-24T00:56:17;3.53;;;3.00;;
4529;SDS011;2277;51.626;7.516;2023-08-24T00:58:46;5.40;;;3.10;;
4529;SDS011;2277;51.626;7.516;2023-08-24T01:01:12;4.00;;;3.60;;
4529;SDS011;2277;51.626;7.516;2023-08-24T01:03:38;3.17;;;2.87;;
4529;SDS011;2277;51.626;7.516;2023-08-24T01:06:04;3.20;;;2.90;;
4529;SDS011;2277;51.626;7.516;2023-08-24T01:08:29;5.37;;;3.53;;
4529;SDS011;2277;51.626;7.516;2023-08-24T01:13:59;3.47;;;3.17;;
4529;SDS011;2277;51.626;7.516;2023-08-24T01:16:28;9.03;;;3.93;;
4529;SDS011;2277;51.626;7.516;2023-08-24T01:18:55;5.77;;;4.40;;
4529;SDS011;2277;51.626;7.516;2023-08-24T01:21:22;4.57;;;4.07;;
4529;SDS011;2277;51.626;7.516;2023-08-24T01:23:53;5.27;;;3.70;;
4529;SDS011;2277;51.626;7.516;2023-08-24T01:26:28;6.87;;;3.50;;
4529;SDS011;2277;51.626;7.516;2023-08-24T01:28:55;6.37;;;3.60;;
4529;SDS011;2277;51.626;7.516;2023-08-24T01:31:21;5.20;;;4.37;;
4529;SDS011;2277;51.626;7.516;2023-08-24T01:33:47;4.30;;;3.80;;
4529;SDS011;2277;51.626;7.516;2023-08-24T01:36:13;3.63;;;3.33;;
4529;SDS011;2277;51.626;7.516;2023-08-24T01:38:42;7.33;;;3.77;;
4529;SDS011;2277;51.626;7.516;2023-08-24T01:43:53;3.50;;;3.20;;
4529;SDS011;2277;51.626;7.516;2023-08-24T01:46:20;6.00;;;3.70;;
4529;SDS011;2277;51.626;7.516;2023-08-24T01:48:49;4.17;;;3.77;;
4529;SDS011;2277;51.626;7.516;2023-08-24T01:51:16;4.40;;;3.57;;
4529;SDS011;2277;51.626;7.516;2023-08-24T01:53:42;3.97;;;3.60;;
4529;SDS011;2277;51.626;7.516;2023-08-24T01:56:12;5.73;;;3.97;;
4529;SDS011;2277;51.626;7.516;2023-08-24T01:58:39;9.77;;;4.47;;
4529;SDS011;2277;51.626;7.516;2023-08-24T02:01:05;6.70;;;3.57;;
4529;SDS011;2277;51.626;7.516;2023-08-24T02:03:32;5.10;;;3.97;;
4529;SDS011;2277;51.626;7.516;2023-08-24T02:05:58;4.97;;;3.50;;
4529;SDS011;2277;51.626;7.516;2023-08-24T02:08:24;5.83;;;3.77;;
4529;SDS011;2277;51.626;7.516;2023-08-24T02:10:49;5.80;;;3.47;;
4529;SDS011;2277;51.626;7.516;2023-08-24T02:13:15;4.27;;;3.47;;
4529;SDS011;2277;51.626;7.516;2023-08-24T02:15:41;5.20;;;3.67;;
4529;SDS011;2277;51.626;7.516;2023-08-24T02:18:06;5.90;;;3.73;;
4529;SDS011;2277;51.626;7.516;2023-08-24T02:20:36;6.80;;;3.20;;
4529;SDS011;2277;51.626;7.516;2023-08-24T02:23:02;4.90;;;4.20;;
4529;SDS011;2277;51.626;7.516;2023-08-24T02:25:28;4.53;;;4.13;;
4529;SDS011;2277;51.626;7.516;2023-08-24T02:27:54;4.90;;;4.00;;
4529;SDS011;2277;51.626;7.516;2023-08-24T02:30:20;4.27;;;3.87;;
4529;SDS011;2277;51.626;7.516;2023-08-24T02:32:46;3.83;;;3.50;;
4529;SDS011;2277;51.626;7.516;2023-08-24T02:35:11;4.33;;;3.87;;
4529;SDS011;2277;51.626;7.516;2023-08-24T02:37:37;4.13;;;3.73;;
4529;SDS011;2277;51.626;7.516;2023-08-24T02:40:02;5.33;;;4.53;;
4529;SDS011;2277;51.626;7.516;2023-08-24T02:42:31;4.70;;;4.10;;
4529;SDS011;2277;51.626;7.516;2023-08-24T02:44:58;6.50;;;4.30;;
4529;SDS011;2277;51.626;7.516;2023-08-24T02:47:24;5.63;;;4.20;;
4529;SDS011;2277;51.626;7.516;2023-08-24T02:49:50;11.30;;;5.30;;
4529;SDS011;2277;51.626;7.516;2023-08-24T02:52:15;4.87;;;4.23;;
4529;SDS011;2277;51.626;7.516;2023-08-24T02:54:41;4.97;;;4.30;;
4529;SDS011;2277;51.626;7.516;2023-08-24T02:57:07;8.70;;;4.97;;
4529;SDS011;2277;51.626;7.516;2023-08-24T02:59:32;4.30;;;3.90;;
4529;SDS011;2277;51.626;7.516;2023-08-24T03:01:58;5.47;;;4.63;;
4529;SDS011;2277;51.626;7.516;2023-08-24T03:04:23;5.23;;;4.60;;
4529;SDS011;2277;51.626;7.516;2023-08-24T03:06:49;5.90;;;4.80;;
4529;SDS011;2277;51.626;7.516;2023-08-24T03:09:14;5.37;;;4.63;;
4529;SDS011;2277;51.626;7.516;2023-08-24T03:11:40;9.90;;;4.40;;
4529;SDS011;2277;51.626;7.516;2023-08-24T03:14:06;6.47;;;5.87;;
4529;SDS011;2277;51.626;7.516;2023-08-24T03:16:32;4.40;;;4.00;;
4529;SDS011;2277;51.626;7.516;2023-08-24T03:18:57;6.57;;;4.13;;
4529;SDS011;2277;51.626;7.516;2023-08-24T03:21:23;4.87;;;3.90;;
4529;SDS011;2277;51.626;7.516;2023-08-24T03:23:49;6.00;;;4.57;;
4529;SDS011;2277;51.626;7.516;2023-08-24T03:26:14;5.30;;;4.73;;
4529;SDS011;2277;51.626;7.516;2023-08-24T03:28:41;5.20;;;4.70;;
4529;SDS011;2277;51.626;7.516;2023-08-24T03:31:07;5.50;;;4.10;;
4529;SDS011;2277;51.626;7.516;2023-08-24T03:33:33;8.23;;;3.47;;
4529;SDS011;2277;51.626;7.516;2023-08-24T03:35:59;7.83;;;3.90;;
4529;SDS011;2277;51.626;7.516;2023-08-24T03:38:25;5.03;;;4.00;;
4529;SDS011;2277;51.626;7.516;2023-08-24T03:40:51;4.93;;;4.43;;
4529;SDS011;2277;51.626;7.516;2023-08-24T03:43:24;5.67;;;5.07;;
4529;SDS011;2277;51.626;7.516;2023-08-24T03:45:49;5.40;;;4.60;;
4529;SDS011;2277;51.626;7.516;2023-08-24T03:48:15;6.30;;;5.33;;
4529;SDS011;2277;51.626;7.516;2023-08-24T03:50:41;10.50;;;5.13;;
4529;SDS011;2277;51.626;7.516;2023-08-24T03:53:07;6.67;;;6.00;;
4529;SDS011;2277;51.626;7.516;2023-08-24T03:55:32;5.23;;;4.73;;
4529;SDS011;2277;51.626;7.516;2023-08-24T03:57:58;8.20;;;6.40;;
4529;SDS011;2277;51.626;7.516;2023-08-24T04:00:23;6.30;;;5.70;;
4529;SDS011;2277;51.626;7.516;2023-08-24T04:02:49;5.70;;;5.20;;
4529;SDS011;2277;51.626;7.516;2023-08-24T04:05:15;9.37;;;5.33;;
4529;SDS011;2277;51.626;7.516;2023-08-24T04:07:40;7.90;;;6.87;;
4529;SDS011;2277;51.626;7.516;2023-08-24T04:10:07;9.63;;;6.93;;
4529;SDS011;2277;51.626;7.516;2023-08-24T04:12:33;8.47;;;6.23;;
4529;SDS011;2277;51.626;7.516;2023-08-24T04:14:59;9.20;;;6.10;;
4529;SDS011;2277;51.626;7.516;2023-08-24T04:17:25;6.40;;;4.70;;
4529;SDS011;2277;51.626;7.516;2023-08-24T04:19:50;9.50;;;5.77;;
4529;SDS011;2277;51.626;7.516;2023-08-24T04:22:17;7.53;;;5.90;;
4529;SDS011;2277;51.626;7.516;2023-08-24T04:24:43;8.00;;;7.30;;
4529;SDS011;2277;51.626;7.516;2023-08-24T04:27:08;13.53;;;7.07;;
4529;SDS011;2277;51.626;7.516;2023-08-24T04:29:34;8.63;;;6.67;;
4529;SDS011;2277;51.626;7.516;2023-08-24T04:31:59;8.50;;;7.53;;
4529;SDS011;2277;51.626;7.516;2023-08-24T04:34:25;8.10;;;7.30;;
4529;SDS011;2277;51.626;7.516;2023-08-24T04:36:51;9.80;;;7.13;;
4529;SDS011;2277;51.626;7.516;2023-08-24T04:39:16;9.43;;;6.60;;
4529;SDS011;2277;51.626;7.516;2023-08-24T04:41:43;7.37;;;6.60;;
4529;SDS011;2277;51.626;7.516;2023-08-24T04:44:10;8.87;;;7.23;;
4529;SDS011;2277;51.626;7.516;2023-08-24T04:46:35;9.43;;;7.70;;
4529;SDS011;2277;51.626;7.516;2023-08-24T04:49:01;9.07;;;7.73;;
4529;SDS011;2277;51.626;7.516;2023-08-24T04:51:28;9.63;;;8.20;;
4529;SDS011;2277;51.626;7.516;2023-08-24T04:53:54;11.13;;;8.00;;
4529;SDS011;2277;51.626;7.516;2023-08-24T04:56:19;7.23;;;6.60;;
4529;SDS011;2277;51.626;7.516;2023-08-24T04:58:54;9.73;;;7.10;;
4529;SDS011;2277;51.626;7.516;2023-08-24T05:01:22;10.20;;;8.37;;
4529;SDS011;2277;51.626;7.516;2023-08-24T05:03:49;8.30;;;6.70;;
4529;SDS011;2277;51.626;7.516;2023-08-24T05:06:15;10.17;;;7.80;;
4529;SDS011;2277;51.626;7.516;2023-08-24T05:08:41;10.13;;;8.37;;
4529;SDS011;2277;51.626;7.516;2023-08-24T05:11:10;10.53;;;8.50;;
4529;SDS011;2277;51.626;7.516;2023-08-24T05:13:43;10.20;;;7.10;;
4529;SDS011;2277;51.626;7.516;2023-08-24T05:16:09;9.63;;;7.83;;
4529;SDS011;2277;51.626;7.516;2023-08-24T05:18:35;13.47;;;8.40;;
4529;SDS011;2277;51.626;7.516;2023-08-24T05:21:01;10.60;;;8.30;;
4529;SDS011;2277;51.626;7.516;2023-08-24T05:23:28;8.97;;;7.50;;
4529;SDS011;2277;51.626;7.516;2023-08-24T05:26:03;11.67;;;7.77;;
4529;SDS011;2277;51.626;7.516;2023-08-24T05:28:29;12.23;;;8.00;;
4529;SDS011;2277;51.626;7.516;2023-08-24T05:30:56;11.40;;;9.50;;
4529;SDS011;2277;51.626;7.516;2023-08-24T05:33:23;9.93;;;8.30;;
4529;SDS011;2277;51.626;7.516;2023-08-24T05:35:49;11.07;;;7.63;;
4529;SDS011;2277;51.626;7.516;2023-08-24T05:38:16;9.30;;;7.93;;
4529;SDS011;2277;51.626;7.516;2023-08-24T05:40:42;15.17;;;9.70;;
4529;SDS011;2277;51.626;7.516;2023-08-24T05:43:11;12.40;;;10.10;;
4529;SDS011;2277;51.626;7.516;2023-08-24T05:45:36;10.30;;;8.77;;
4529;SDS011;2277;51.626;7.516;2023-08-24T05:48:04;9.47;;;8.63;;
4529;SDS011;2277;51.626;7.516;2023-08-24T05:50:30;11.23;;;8.70;;
4529;SDS011;2277;51.626;7.516;2023-08-24T05:52:56;10.73;;;8.80;;
4529;SDS011;2277;51.626;7.516;2023-08-24T05:55:21;9.90;;;8.07;;
4529;SDS011;2277;51.626;7.516;2023-08-24T05:57:47;10.07;;;8.53;;
4529;SDS011;2277;51.626;7.516;2023-08-24T06:00:13;9.97;;;8.67;;
4529;SDS011;2277;51.626;7.516;2023-08-24T06:02:39;10.20;;;7.93;;
4529;SDS011;2277;51.626;7.516;2023-08-24T06:05:05;13.17;;;9.53;;
4529;SDS011;2277;51.626;7.516;2023-08-24T06:07:32;9.20;;;8.10;;
4529;SDS011;2277;51.626;7.516;2023-08-24T06:09:58;9.67;;;8.20;;
4529;SDS011;2277;51.626;7.516;2023-08-24T06:12:23;10.00;;;8.40;;
4529;SDS011;2277;51.626;7.516;2023-08-24T06:14:49;14.33;;;8.43;;
4529;SDS011;2277;51.626;7.516;2023-08-24T06:17:15;9.43;;;8.53;;
4529;SDS011;2277;51.626;7.516;2023-08-24T06:19:40;10.07;;;8.47;;
4529;SDS011;2277;51.626;7.516;2023-08-24T06:22:06;16.80;;;10.13;;
4529;SDS011;2277;51.626;7.516;2023-08-24T06:24:32;11.23;;;9.03;;
4529;SDS011;2277;51.626;7.516;2023-08-24T06:26:58;12.67;;;9.23;;
4529;SDS011;2277;51.626;7.516;2023-08-24T06:29:23;10.70;;;9.40;;
4529;SDS011;2277;51.626;7.516;2023-08-24T06:31:49;12.93;;;8.80;;
4529;SDS011;2277;51.626;7.516;2023-08-24T06:34:14;7.93;;;6.93;;
4529;SDS011;2277;51.626;7.516;2023-08-24T06:36:40;10.20;;;7.10;;
4529;SDS011;2277;51.626;7.516;2023-08-24T06:39:06;8.53;;;7.63;;
4529;SDS011;2277;51.626;7.516;2023-08-24T06:41:34;9.27;;;8.27;;
4529;SDS011;2277;51.626;7.516;2023-08-24T06:44:01;8.63;;;7.73;;
4529;SDS011;2277;51.626;7.516;2023-08-24T06:46:26;9.10;;;8.17;;
4529;SDS011;2277;51.626;7.516;2023-08-24T06:48:52;14.67;;;8.67;;
4529;SDS011;2277;51.626;7.516;2023-08-24T06:51:18;8.73;;;7.90;;
4529;SDS011;2277;51.626;7.516;2023-08-24T06:53:43;13.53;;;8.33;;
4529;SDS011;2277;51.626;7.516;2023-08-24T06:56:11;12.63;;;8.00;;
4529;SDS011;2277;51.626;7.516;2023-08-24T06:58:39;10.23;;;7.70;;
4529;SDS011;2277;51.626;7.516;2023-08-24T07:01:04;8.80;;;6.10;;
4529;SDS011;2277;51.626;7.516;2023-08-24T07:03:31;8.27;;;7.57;;
4529;SDS011;2277;51.626;7.516;2023-08-24T07:05:58;7.80;;;6.77;;
4529;SDS011;2277;51.626;7.516;2023-08-24T07:08:24;10.83;;;9.17;;
4529;SDS011;2277;51.626;7.516;2023-08-24T07:10:49;11.87;;;9.53;;
4529;SDS011;2277;51.626;7.516;2023-08-24T07:13:15;9.77;;;8.07;;
4529;SDS011;2277;51.626;7.516;2023-08-24T07:15:41;10.80;;;7.93;;
4529;SDS011;2277;51.626;7.516;2023-08-24T07:18:07;10.03;;;7.93;;
4529;SDS011;2277;51.626;7.516;2023-08-24T07:20:33;9.77;;;8.77;;
4529;SDS011;2277;51.626;7.516;2023-08-24T07:22:59;12.53;;;8.57;;
4529;SDS011;2277;51.626;7.516;2023-08-24T07:25:25;11.60;;;10.10;;
4529;SDS011;2277;51.626;7.516;2023-08-24T07:27:52;10.23;;;9.10;;
4529;SDS011;2277;51.626;7.516;2023-08-24T07:30:23;9.83;;;8.10;;
4529;SDS011;2277;51.626;7.516;2023-08-24T07:32:49;14.43;;;8.60;;
4529;SDS011;2277;51.626;7.516;2023-08-24T07:35:15;17.80;;;8.03;;
4529;SDS011;2277;51.626;7.516;2023-08-24T07:37:41;10.23;;;8.60;;
4529;SDS011;2277;51.626;7.516;2023-08-24T07:40:07;8.77;;;7.60;;
4529;SDS011;2277;51.626;7.516;2023-08-24T07:42:42;9.23;;;8.30;;
4529;SDS011;2277;51.626;7.516;2023-08-24T07:45:10;10.10;;;8.20;;
4529;SDS011;2277;51.626;7.516;2023-08-24T07:47:36;9.30;;;8.40;;
4529;SDS011;2277;51.626;7.516;2023-08-24T07:50:02;9.13;;;7.47;;
4529;SDS011;2277;51.626;7.516;2023-08-24T07:52:28;12.30;;;8.80;;
4529;SDS011;2277;51.626;7.516;2023-08-24T07:54:54;11.27;;;8.20;;
4529;SDS011;2277;51.626;7.516;2023-08-24T07:57:24;11.40;;;8.00;;
4529;SDS011;2277;51.626;7.516;2023-08-24T07:59:51;10.03;;;7.50;;
4529;SDS011;2277;51.626;7.516;2023-08-24T08:02:16;13.13;;;7.90;;
4529;SDS011;2277;51.626;7.516;2023-08-24T08:04:42;9.43;;;8.00;;
4529;SDS011;2277;51.626;7.516;2023-08-24T08:07:07;9.00;;;7.20;;
4529;SDS011;2277;51.626;7.516;2023-08-24T08:09:33;8.53;;;7.63;;
4529;SDS011;2277;51.626;7.516;2023-08-24T08:12:01;8.00;;;7.20;;
4529;SDS011;2277;51.626;7.516;2023-08-24T08:14:28;10.00;;;7.80;;
4529;SDS011;2277;51.626;7.516;2023-08-24T08:16:54;7.77;;;6.77;;
4529;SDS011;2277;51.626;7.516;2023-08-24T08:19:21;9.60;;;7.33;;
4529;SDS011;2277;51.626;7.516;2023-08-24T08:21:47;9.87;;;6.70;;
4529;SDS011;2277;51.626;7.516;2023-08-24T08:24:12;21.97;;;7.83;;
4529;SDS011;2277;51.626;7.516;2023-08-24T08:26:38;7.40;;;6.20;;
4529;SDS011;2277;51.626;7.516;2023-08-24T08:29:03;7.37;;;6.67;;
4529;SDS011;2277;51.626;7.516;2023-08-24T08:31:30;8.03;;;6.13;;
4529;SDS011;2277;51.626;7.516;2023-08-24T08:33:56;12.33;;;7.03;;
4529;SDS011;2277;51.626;7.516;2023-08-24T08:36:21;10.60;;;6.20;;
4529;SDS011;2277;51.626;7.516;2023-08-24T08:38:47;12.63;;;5.80;;
4529;SDS011;2277;51.626;7.516;2023-08-24T08:41:13;10.67;;;5.73;;
4529;SDS011;2277;51.626;7.516;2023-08-24T08:43:42;7.70;;;5.87;;
4529;SDS011;2277;51.626;7.516;2023-08-24T08:46:07;9.23;;;7.13;;
4529;SDS011;2277;51.626;7.516;2023-08-24T08:48:33;13.40;;;6.03;;
4529;SDS011;2277;51.626;7.516;2023-08-24T08:51:00;7.10;;;6.27;;
4529;SDS011;2277;51.626;7.516;2023-08-24T08:53:27;6.50;;;5.43;;
4529;SDS011;2277;51.626;7.516;2023-08-24T08:55:54;6.77;;;5.00;;
4529;SDS011;2277;51.626;7.516;2023-08-24T08:58:22;8.60;;;6.50;;
4529;SDS011;2277;51.626;7.516;2023-08-24T09:00:49;7.03;;;5.80;;
4529;SDS011;2277;51.626;7.516;2023-08-24T09:03:17;5.90;;;5.40;;
4529;SDS011;2277;51.626;7.516;2023-08-24T09:05:46;6.07;;;5.47;;
4529;SDS011;2277;51.626;7.516;2023-08-24T09:08:18;5.33;;;4.83;;
4529;SDS011;2277;51.626;7.516;2023-08-24T09:10:44;8.10;;;4.80;;
4529;SDS011;2277;51.626;7.516;2023-08-24T09:13:10;6.83;;;5.00;;
4529;SDS011;2277;51.626;7.516;2023-08-24T09:15:35;6.10;;;4.30;;
4529;SDS011;2277;51.626;7.516;2023-08-24T09:18:02;6.23;;;5.10;;
4529;SDS011;2277;51.626;7.516;2023-08-24T09:20:28;6.33;;;5.00;;
4529;SDS011;2277;51.626;7.516;2023-08-24T09:22:54;6.33;;;4.40;;
4529;SDS011;2277;51.626;7.516;2023-08-24T09:25:22;7.50;;;4.37;;
4529;SDS011;2277;51.626;7.516;2023-08-24T09:27:57;5.60;;;4.63;;
4529;SDS011;2277;51.626;7.516;2023-08-24T09:30:28;6.00;;;3.97;;
4529;SDS011;2277;51.626;7.516;2023-08-24T09:32:54;5.90;;;4.40;;
4529;SDS011;2277;51.626;7.516;2023-08-24T09:35:20;6.40;;;4.50;;
4529;SDS011;2277;51.626;7.516;2023-08-24T09:37:46;5.00;;;3.80;;
4529;SDS011;2277;51.626;7.516;2023-08-24T09:40:14;11.30;;;4.10;;
4529;SDS011;2277;51.626;7.516;2023-08-24T09:42:41;2.93;;;2.67;;
4529;SDS011;2277;51.626;7.516;2023-08-24T09:45:11;5.00;;;4.50;;
4529;SDS011;2277;51.626;7.516;2023-08-24T09:47:37;3.80;;;3.50;;
4529;SDS011;2277;51.626;7.516;2023-08-24T09:50:03;3.70;;;3.30;;
4529;SDS011;2277;51.626;7.516;2023-08-24T09:52:33;3.50;;;3.20;;
4529;SDS011;2277;51.626;7.516;2023-08-24T09:55:08;7.40;;;3.37;;
4529;SDS011;2277;51.626;7.516;2023-08-24T09:57:38;3.47;;;3.17;;
4529;SDS011;2277;51.626;7.516;2023-08-24T10:00:07;9.63;;;3.33;;
4529;SDS011;2277;51.626;7.516;2023-08-24T10:02:43;5.93;;;3.47;;
4529;SDS011;2277;51.626;7.516;2023-08-24T10:05:11;7.83;;;3.57;;
4529;SDS011;2277;51.626;7.516;2023-08-24T10:07:45;3.83;;;3.50;;
4529;SDS011;2277;51.626;7.516;2023-08-24T10:10:15;7.43;;;3.30;;
4529;SDS011;2277;51.626;7.516;2023-08-24T10:12:44;10.87;;;2.70;;
4529;SDS011;2277;51.626;7.516;2023-08-24T10:15:13;3.57;;;2.80;;
4529;SDS011;2277;51.626;7.516;2023-08-24T10:17:40;3.40;;;2.60;;
4529;SDS011;2277;51.626;7.516;2023-08-24T10:20:06;3.30;;;3.00;;
4529;SDS011;2277;51.626;7.516;2023-08-24T10:22:35;9.47;;;3.37;;
4529;SDS011;2277;51.626;7.516;2023-08-24T10:25:02;4.93;;;3.20;;
4529;SDS011;2277;51.626;7.516;2023-08-24T10:27:29;3.43;;;3.13;;
4529;SDS011;2277;51.626;7.516;2023-08-24T10:29:55;4.73;;;3.50;;
4529;SDS011;2277;51.626;7.516;2023-08-24T10:32:22;4.70;;;3.13;;
4529;SDS011;2277;51.626;7.516;2023-08-24T10:34:49;5.27;;;2.93;;
4529;SDS011;2277;51.626;7.516;2023-08-24T10:37:15;4.20;;;3.03;;
4529;SDS011;2277;51.626;7.516;2023-08-24T10:39:44;3.00;;;2.33;;
4529;SDS011;2277;51.626;7.516;2023-08-24T10:42:11;5.17;;;2.73;;
4529;SDS011;2277;51.626;7.516;2023-08-24T10:44:38;12.43;;;3.47;;
4529;SDS011;2277;51.626;7.516;2023-08-24T10:47:05;5.37;;;2.70;;
4529;SDS011;2277;51.626;7.516;2023-08-24T10:49:43;5.80;;;3.50;;
4529;SDS011;2277;51.626;7.516;2023-08-24T10:52:17;4.70;;;2.87;;
4529;SDS011;2277;51.626;7.516;2023-08-24T10:54:50;3.60;;;2.90;;
4529;SDS011;2277;51.626;7.516;2023-08-24T10:57:26;6.30;;;3.10;;
4529;SDS011;2277;51.626;7.516;2023-08-24T11:00:04;3.40;;;2.83;;
4529;SDS011;2277;51.626;7.516;2023-08-24T11:07:56;4.30;;;2.97;;
4529;SDS011;2277;51.626;7.516;2023-08-24T11:10:25;4.63;;;3.00;;
4529;SDS011;2277;51.626;7.516;2023-08-24T11:21:06;4.40;;;3.80;;
4529;SDS011;2277;51.626;7.516;2023-08-24T11:23:32;4.50;;;3.00;;
4529;SDS011;2277;51.626;7.516;2023-08-24T11:25:58;4.27;;;2.80;;
4529;SDS011;2277;51.626;7.516;2023-08-24T11:28:25;3.93;;;3.20;;
4529;SDS011;2277;51.626;7.516;2023-08-24T11:30:55;5.03;;;3.80;;
4529;SDS011;2277;51.626;7.516;2023-08-24T11:33:31;5.93;;;2.73;;
4529;SDS011;2277;51.626;7.516;2023-08-24T11:35:59;4.80;;;2.90;;
4529;SDS011;2277;51.626;7.516;2023-08-24T11:38:34;3.13;;;2.83;;
4529;SDS011;2277;51.626;7.516;2023-08-24T11:41:09;5.00;;;2.90;;
4529;SDS011;2277;51.626;7.516;2023-08-24T11:43:39;4.60;;;2.73;;
4529;SDS011;2277;51.626;7.516;2023-08-24T11:46:05;4.10;;;3.37;;
4529;SDS011;2277;51.626;7.516;2023-08-24T11:48:31;3.07;;;2.70;;
4529;SDS011;2277;51.626;7.516;2023-08-24T11:50:59;2.80;;;2.50;;
4529;SDS011;2277;51.626;7.516;2023-08-24T11:53:25;4.87;;;3.80;;
4529;SDS011;2277;51.626;7.516;2023-08-24T11:55:54;2.90;;;2.60;;
4529;SDS011;2277;51.626;7.516;2023-08-24T11:58:20;5.17;;;3.27;;
4529;SDS011;2277;51.626;7.516;2023-08-24T12:00:45;4.07;;;3.50;;
4529;SDS011;2277;51.626;7.516;2023-08-24T12:03:12;4.10;;;3.13;;
4529;SDS011;2277;51.626;7.516;2023-08-24T12:05:38;3.80;;;2.70;;
4529;SDS011;2277;51.626;7.516;2023-08-24T12:08:04;3.60;;;3.30;;
4529;SDS011;2277;51.626;7.516;2023-08-24T12:10:31;6.20;;;3.50;;
4529;SDS011;2277;51.626;7.516;2023-08-24T12:13:00;4.50;;;3.10;;
4529;SDS011;2277;51.626;7.516;2023-08-24T12:15:28;4.37;;;3.97;;
4529;SDS011;2277;51.626;7.516;2023-08-24T12:17:54;3.30;;;2.57;;
4529;SDS011;2277;51.626;7.516;2023-08-24T12:20:20;5.97;;;3.87;;
4529;SDS011;2277;51.626;7.516;2023-08-24T12:22:53;3.70;;;3.20;;
4529;SDS011;2277;51.626;7.516;2023-08-24T12:25:23;6.80;;;4.07;;
4529;SDS011;2277;51.626;7.516;2023-08-24T12:27:50;5.13;;;3.50;;
4529;SDS011;2277;51.626;7.516;2023-08-24T12:30:17;4.80;;;3.17;;
4529;SDS011;2277;51.626;7.516;2023-08-24T12:35:10;3.40;;;3.10;;
4529;SDS011;2277;51.626;7.516;2023-08-24T12:37:36;2.70;;;2.40;;
4529;SDS011;2277;51.626;7.516;2023-08-24T12:40:02;3.23;;;2.93;;
4529;SDS011;2277;51.626;7.516;2023-08-24T12:42:30;3.00;;;2.63;;
4529;SDS011;2277;51.626;7.516;2023-08-24T12:44:56;3.30;;;2.70;;
4529;SDS011;2277;51.626;7.516;2023-08-24T12:47:22;11.40;;;2.80;;
4529;SDS011;2277;51.626;7.516;2023-08-24T12:49:47;3.23;;;2.73;;
4529;SDS011;2277;51.626;7.516;2023-08-24T12:52:15;5.20;;;2.57;;
4529;SDS011;2277;51.626;7.516;2023-08-24T12:54:41;3.90;;;2.63;;
4529;SDS011;2277;51.626;7.516;2023-08-24T12:57:07;5.53;;;2.80;;
4529;SDS011;2277;51.626;7.516;2023-08-24T12:59:33;3.67;;;2.70;;
4529;SDS011;2277;51.626;7.516;2023-08-24T13:01:59;3.50;;;3.10;;
4529;SDS011;2277;51.626;7.516;2023-08-24T13:04:25;2.80;;;2.37;;
4529;SDS011;2277;51.626;7.516;2023-08-24T13:06:52;2.63;;;2.30;;
4529;SDS011;2277;51.626;7.516;2023-08-24T13:09:17;2.43;;;1.83;;
4529;SDS011;2277;51.626;7.516;2023-08-24T13:11:43;3.20;;;2.00;;
4529;SDS011;2277;51.626;7.516;2023-08-24T13:14:09;3.03;;;2.30;;
4529;SDS011;2277;51.626;7.516;2023-08-24T13:16:34;2.67;;;2.17;;
4529;SDS011;2277;51.626;7.516;2023-08-24T13:19:00;4.23;;;2.50;;
4529;SDS011;2277;51.626;7.516;2023-08-24T13:21:25;3.27;;;2.60;;
4529;SDS011;2277;51.626;7.516;2023-08-24T13:23:51;9.13;;;2.77;;
4529;SDS011;2277;51.626;7.516;2023-08-24T13:26:17;3.00;;;2.30;;
4529;SDS011;2277;51.626;7.516;2023-08-24T13:28:48;2.37;;;2.00;;
4529;SDS011;2277;51.626;7.516;2023-08-24T13:31:14;3.87;;;2.03;;
4529;SDS011;2277;51.626;7.516;2023-08-24T13:33:39;2.20;;;1.90;;
4529;SDS011;2277;51.626;7.516;2023-08-24T13:36:05;6.70;;;2.60;;
4529;SDS011;2277;51.626;7.516;2023-08-24T13:38:31;3.03;;;2.17;;
4529;SDS011;2277;51.626;7.516;2023-08-24T13:40:56;8.43;;;3.13;;
4529;SDS011;2277;51.626;7.516;2023-08-24T13:43:22;5.43;;;3.20;;
4529;SDS011;2277;51.626;7.516;2023-08-24T13:45:47;5.27;;;3.50;;
4529;SDS011;2277;51.626;7.516;2023-08-24T13:48:13;3.63;;;2.37;;
4529;SDS011;2277;51.626;7.516;2023-08-24T13:50:40;2.63;;;2.33;;
4529;SDS011;2277;51.626;7.516;2023-08-24T13:53:06;5.40;;;3.00;;
4529;SDS011;2277;51.626;7.516;2023-08-24T13:55:32;3.23;;;2.47;;
4529;SDS011;2277;51.626;7.516;2023-08-24T13:57:58;6.90;;;2.97;;
4529;SDS011;2277;51.626;7.516;2023-08-24T14:00:23;10.33;;;2.70;;
4529;SDS011;2277;51.626;7.516;2023-08-24T14:02:50;12.30;;;2.57;;
4529;SDS011;2277;51.626;7.516;2023-08-24T14:05:15;5.67;;;2.83;;
4529;SDS011;2277;51.626;7.516;2023-08-24T14:07:41;5.07;;;2.60;;
4529;SDS011;2277;51.626;7.516;2023-08-24T14:10:07;3.17;;;2.63;;
4529;SDS011;2277;51.626;7.516;2023-08-24T14:12:33;5.73;;;2.80;;
4529;SDS011;2277;51.626;7.516;2023-08-24T14:14:59;4.00;;;2.37;;
4529;SDS011;2277;51.626;7.516;2023-08-24T14:17:25;2.63;;;1.80;;
4529;SDS011;2277;51.626;7.516;2023-08-24T14:19:50;3.40;;;2.80;;
4529;SDS011;2277;51.626;7.516;2023-08-24T14:22:16;5.27;;;2.63;;
4529;SDS011;2277;51.626;7.516;2023-08-24T14:24:41;5.53;;;2.40;;
4529;SDS011;2277;51.626;7.516;2023-08-24T14:27:07;3.13;;;2.20;;
4529;SDS011;2277;51.626;7.516;2023-08-24T14:29:32;3.80;;;2.30;;
4529;SDS011;2277;51.626;7.516;2023-08-24T14:31:58;4.00;;;2.80;;
4529;SDS011;2277;51.626;7.516;2023-08-24T14:34:24;4.00;;;2.30;;
4529;SDS011;2277;51.626;7.516;2023-08-24T14:36:49;4.30;;;2.70;;
4529;SDS011;2277;51.626;7.516;2023-08-24T14:39:15;3.70;;;2.10;;
4529;SDS011;2277;51.626;7.516;2023-08-24T14:41:41;8.43;;;2.70;;
4529;SDS011;2277;51.626;7.516;2023-08-24T14:44:06;3.63;;;2.43;;
4529;SDS011;2277;51.626;7.516;2023-08-24T14:46:32;2.93;;;2.30;;
4529;SDS011;2277;51.626;7.516;2023-08-24T14:48:58;6.50;;;3.73;;
4529;SDS011;2277;51.626;7.516;2023-08-24T14:51:24;2.80;;;2.20;;
4529;SDS011;2277;51.626;7.516;2023-08-24T14:53:50;3.10;;;2.17;;
4529;SDS011;2277;51.626;7.516;2023-08-24T14:56:15;2.83;;;2.53;;
4529;SDS011;2277;51.626;7.516;2023-08-24T14:58:41;3.40;;;2.70;;
4529;SDS011;2277;51.626;7.516;2023-08-24T15:01:06;4.80;;;3.00;;
4529;SDS011;2277;51.626;7.516;2023-08-24T15:03:32;3.80;;;2.17;;
4529;SDS011;2277;51.626;7.516;2023-08-24T15:05:58;5.20;;;3.50;;
4529;SDS011;2277;51.626;7.516;2023-08-24T15:08:32;4.40;;;2.87;;
4529;SDS011;2277;51.626;7.516;2023-08-24T15:10:59;4.23;;;2.33;;
4529;SDS011;2277;51.626;7.516;2023-08-24T15:13:25;4.27;;;2.60;;
4529;SDS011;2277;51.626;7.516;2023-08-24T15:15:52;3.30;;;2.40;;
4529;SDS011;2277;51.626;7.516;2023-08-24T15:18:19;9.53;;;3.60;;
4529;SDS011;2277;51.626;7.516;2023-08-24T15:20:45;2.93;;;2.27;;
4529;SDS011;2277;51.626;7.516;2023-08-24T15:23:19;2.73;;;2.40;;
4529;SDS011;2277;51.626;7.516;2023-08-24T15:25:49;2.97;;;2.67;;
4529;SDS011;2277;51.626;7.516;2023-08-24T15:28:14;4.00;;;3.10;;
4529;SDS011;2277;51.626;7.516;2023-08-24T15:30:40;4.17;;;2.60;;